Terminal Aerodrome Forecast
Issued by NWS

Home | Current Version | Previous Version | Graphics & Text | Print | Product List | Glossary On
Versions: 1 2 3 4 5 6 7 8 9 10 11 12 13 14 15
000
FTUS43 KGRB 271125
TAFCWA
TAF
KCWA 271125Z 2712/2812 VRB03KT P6SM SKC
     FM271500 15007KT P6SM FEW040 SCT200
     FM272300 13003KT P6SM SCT200
     FM280500 13003KT P6SM SKC WS009/21025KT=

USA.gov is the U.S. government's official web portal to all federal, state and local government web resources and services.